Time;durP1;ratioP1;P1;durP2;ratioP2;P2;SDS_P1;SDS_P2;PMS_P1;PMS_P2;Temp;Humidity;BMP_temperature;BMP_pressure;BME280_temperature;BME280_humidity;BME280_pressure;Samples;Min_cycle;Max_cycle;Signal;HPM_P1;HPM_P2
2022/06/21 00:01:15;;;;;;;9.77;3.35;;;13.40;99.90;;;;;;5102861;28;20122;-48
2022/06/21 00:03:42;;;;;;;9.38;3.42;;;13.40;99.90;;;;;;5102647;28;20436;-48
2022/06/21 00:06:09;;;;;;;7.57;2.67;;;13.40;99.90;;;;;;5103011;28;20486;-47
2022/06/21 00:08:36;;;;;;;7.63;2.80;;;13.40;99.90;;;;;;5087783;28;20036;-49
2022/06/21 00:11:04;;;;;;;7.63;2.83;;;13.30;99.90;;;;;;5102963;28;20122;-48
2022/06/21 00:13:34;;;;;;;7.18;2.80;;;13.30;99.90;;;;;;5086363;28;20032;-49
2022/06/21 00:16:06;;;;;;;8.02;3.00;;;13.40;99.90;;;;;;5086140;28;20096;-47
2022/06/21 00:18:34;;;;;;;11.00;2.72;;;13.30;99.90;;;;;;5102237;28;20391;-46
2022/06/21 00:21:00;;;;;;;9.15;2.60;;;13.20;99.90;;;;;;5102116;28;20031;-47
2022/06/21 00:23:30;;;;;;;9.55;2.88;;;13.30;99.90;;;;;;5101636;28;20103;-46
2022/06/21 00:25:57;;;;;;;11.65;3.08;;;13.30;99.90;;;;;;5087552;28;20042;-45
2022/06/21 00:28:23;;;;;;;9.40;2.92;;;13.40;99.90;;;;;;5102507;28;20130;-49
2022/06/21 00:30:51;;;;;;;7.63;2.60;;;13.40;99.90;;;;;;5103948;28;20120;-46
2022/06/21 00:33:22;;;;;;;7.40;2.65;;;13.40;99.90;;;;;;5106721;28;20246;-47
2022/06/21 00:35:50;;;;;;;10.65;2.85;;;13.30;99.90;;;;;;5106685;28;20044;-48
2022/06/21 00:38:30;;;;;;;7.00;2.60;;;13.20;99.90;;;;;;5105830;28;20048;-47
2022/06/21 00:40:58;;;;;;;7.20;2.25;;;13.10;99.90;;;;;;5106079;28;20028;-45
2022/06/21 00:43:31;;;;;;;8.00;3.25;;;13.10;99.90;;;;;;5106479;28;20521;-48
2022/06/21 00:45:57;;;;;;;7.60;2.85;;;13.00;99.90;;;;;;5106679;28;20467;-47
2022/06/21 00:48:36;;;;;;;10.13;2.72;;;12.90;99.90;;;;;;5106389;28;20051;-48
2022/06/21 00:51:18;;;;;;;7.13;2.60;;;12.80;99.90;;;;;;5106225;27;20180;-47
2022/06/21 00:53:53;;;;;;;7.07;2.83;;;12.80;99.90;;;;;;5105161;28;20051;-45
2022/06/21 00:56:28;;;;;;;6.13;2.45;;;12.90;99.90;;;;;;5105792;28;20411;-47
2022/06/21 00:58:54;;;;;;;9.95;2.70;;;12.90;99.90;;;;;;5105294;28;23365;-49
2022/06/21 01:01:29;;;;;;;6.50;2.60;;;13.00;99.90;;;;;;5105945;28;20048;-49
2022/06/21 01:04:13;;;;;;;8.05;2.90;;;12.90;99.90;;;;;;5106169;28;20036;-46
2022/06/21 01:06:47;;;;;;;6.43;2.97;;;13.00;99.90;;;;;;5105911;28;20509;-45
2022/06/21 01:09:31;;;;;;;9.50;3.17;;;12.90;99.90;;;;;;5105557;28;20035;-48
2022/06/21 01:12:06;;;;;;;6.88;3.33;;;12.90;99.90;;;;;;5105950;28;20041;-47
2022/06/21 01:14:35;;;;;;;10.90;3.30;;;13.00;99.90;;;;;;5105703;28;20069;-47
2022/06/21 01:17:01;;;;;;;10.55;3.05;;;13.00;99.90;;;;;;5105247;28;20036;-51
2022/06/21 01:19:47;;;;;;;8.82;3.35;;;12.80;99.90;;;;;;5105431;27;20118;-47
2022/06/21 01:22:18;;;;;;;10.40;3.10;;;12.80;99.90;;;;;;5104920;28;20047;-47
2022/06/21 01:25:10;;;;;;;9.50;3.10;;;12.80;99.90;;;;;;5106575;28;20035;-49
2022/06/21 01:27:37;;;;;;;3.42;1.90;;;12.80;99.90;;;;;;5081192;28;20384;-46
2022/06/21 01:30:05;;;;;;;3.30;1.63;;;12.80;99.90;;;;;;5105596;28;20039;-46
2022/06/21 01:32:31;;;;;;;4.40;1.70;;;12.70;99.90;;;;;;5104745;28;20065;-47
2022/06/21 01:34:57;;;;;;;4.15;1.48;;;12.60;99.90;;;;;;5105509;28;20047;-47
2022/06/21 01:37:28;;;;;;;4.80;1.77;;;12.50;99.90;;;;;;5105470;28;20118;-50
2022/06/21 01:40:13;;;;;;;5.07;2.05;;;12.50;99.90;;;;;;5104881;28;20050;-47
2022/06/21 01:42:54;;;;;;;4.10;2.05;;;12.50;99.90;;;;;;5103918;28;20059;-49
2022/06/21 01:45:27;;;;;;;5.25;2.03;;;12.40;99.90;;;;;;5104641;28;20388;-48
2022/06/21 01:48:02;;;;;;;5.40;2.10;;;12.30;99.90;;;;;;5105156;28;20035;-49
2022/06/21 01:50:28;;;;;;;3.75;2.00;;;12.20;99.90;;;;;;5104600;28;20274;-47
2022/06/21 01:52:55;;;;;;;4.80;2.05;;;12.20;99.90;;;;;;5105018;28;20084;-48
2022/06/21 01:55:23;;;;;;;4.32;2.15;;;12.20;99.90;;;;;;5088695;28;20044;-47
2022/06/21 01:57:50;;;;;;;5.28;2.10;;;12.00;99.90;;;;;;5104536;28;20799;-47
2022/06/21 02:00:17;;;;;;;4.90;2.40;;;12.10;99.90;;;;;;5105396;28;20043;-49
2022/06/21 02:02:47;;;;;;;5.50;2.42;;;12.00;99.90;;;;;;5105204;27;20035;-47
2022/06/21 02:05:18;;;;;;;4.90;2.30;;;12.10;99.90;;;;;;5104891;28;20050;-47
2022/06/21 02:07:58;;;;;;;8.45;2.50;;;12.10;99.90;;;;;;5104359;28;20036;-47
2022/06/21 02:10:34;;;;;;;5.55;2.63;;;12.10;99.90;;;;;;5105492;27;20054;-48
2022/06/21 02:13:18;;;;;;;7.22;2.90;;;12.10;99.90;;;;;;5104223;28;20031;-48
2022/06/21 02:15:58;;;;;;;7.63;3.38;;;12.10;99.90;;;;;;5104290;28;20063;-46
2022/06/21 02:18:26;;;;;;;3.75;2.33;;;12.10;99.90;;;;;;5104248;28;20918;-49
2022/06/21 02:21:05;;;;;;;6.05;3.10;;;12.00;99.90;;;;;;5103845;28;20047;-46
2022/06/21 02:23:31;;;;;;;4.20;3.00;;;11.90;99.90;;;;;;5103945;27;20032;-47
2022/06/21 02:25:57;;;;;;;8.45;3.22;;;11.80;99.90;;;;;;5090352;28;20028;-49
2022/06/21 02:28:28;;;;;;;23.15;4.10;;;11.70;99.90;;;;;;5104938;27;20027;-50
2022/06/21 02:30:55;;;;;;;6.82;3.50;;;11.50;99.90;;;;;;5103929;28;20039;-49
2022/06/21 02:33:23;;;;;;;5.95;2.85;;;11.40;99.90;;;;;;5088006;28;20040;-49
2022/06/21 02:35:55;;;;;;;16.35;3.47;;;11.20;99.90;;;;;;5104307;27;20127;-46
2022/06/21 02:38:34;;;;;;;6.32;3.00;;;11.30;99.90;;;;;;5103889;28;20043;-46
2022/06/21 02:41:13;;;;;;;5.57;3.13;;;11.30;99.90;;;;;;5103899;28;20032;-49
2022/06/21 02:43:43;;;;;;;5.78;3.33;;;11.30;99.90;;;;;;5103914;28;20039;-47
2022/06/21 02:46:18;;;;;;;4.90;3.10;;;11.10;99.90;;;;;;5104284;28;20061;-48
2022/06/21 02:48:48;;;;;;;;;;;11.20;99.90;;;;;;5104615;28;20111;-46
2022/06/21 02:51:19;;;;;;;4.75;3.15;;;11.20;99.90;;;;;;5103634;28;19963;-46
2022/06/21 02:54:07;;;;;;;5.97;2.90;;;11.10;99.90;;;;;;5103741;28;20040;-46
2022/06/21 02:56:45;;;;;;;5.07;3.25;;;11.20;99.90;;;;;;5103566;27;20043;-45
2022/06/21 02:59:12;;;;;;;7.07;3.40;;;11.20;99.90;;;;;;5103425;28;20048;-47
2022/06/21 03:02:00;;;;;;;5.72;3.65;;;11.30;99.90;;;;;;5086828;28;20032;-46
2022/06/21 03:04:39;;;;;;;5.47;3.50;;;11.30;99.90;;;;;;5103797;28;20031;-49
2022/06/21 03:07:07;;;;;;;5.15;3.45;;;11.20;99.90;;;;;;5084764;28;20405;-47
2022/06/21 03:09:34;;;;;;;4.43;3.10;;;11.30;99.90;;;;;;5103335;28;20501;-48
2022/06/21 03:12:04;;;;;;;16.33;3.25;;;11.30;99.90;;;;;;5103825;27;20446;-45
2022/06/21 03:14:33;;;;;;;4.00;2.60;;;11.20;99.90;;;;;;5103178;28;20466;-49
2022/06/21 03:17:01;;;;;;;4.93;2.55;;;11.20;99.90;;;;;;5103063;28;20039;-48
2022/06/21 03:19:47;;;;;;;6.18;2.90;;;11.20;99.90;;;;;;5103500;28;20043;-49
2022/06/21 03:22:24;;;;;;;3.70;2.80;;;11.20;99.90;;;;;;5103300;28;20084;-48
2022/06/21 03:24:57;;;;;;;4.10;2.38;;;11.20;99.90;;;;;;5102876;28;20032;-46
2022/06/21 03:27:33;;;;;;;3.92;2.40;;;11.10;99.90;;;;;;5103078;28;20108;-47
2022/06/21 03:29:59;;;;;;;8.95;1.50;;;11.20;99.90;;;;;;5103163;27;20115;-46
2022/06/21 03:32:29;;;;;;;3.33;1.20;;;11.00;99.90;;;;;;5103082;28;20089;-46
2022/06/21 03:34:55;;;;;;;13.40;1.90;;;11.00;99.90;;;;;;5102594;28;20054;-47
2022/06/21 03:37:21;;;;;;;8.90;1.80;;;10.90;99.90;;;;;;5086167;27;20043;-47
2022/06/21 03:42:37;;;;;;;8.73;2.05;;;10.90;99.90;;;;;;5101546;28;20607;-48
2022/06/21 03:45:10;;;;;;;12.60;2.33;;;10.80;99.90;;;;;;5084904;28;20040;-46
2022/06/21 03:47:55;;;;;;;4.60;2.20;;;10.90;99.90;;;;;;5100982;28;20513;-49
2022/06/21 03:50:41;;;;;;;;;;;10.90;99.90;;;;;;5102950;28;20027;-49
2022/06/21 03:53:13;;;;;;;7.68;2.88;;;10.80;99.90;;;;;;5086734;28;19920;-49
2022/06/21 03:56:08;;;;;;;9.18;3.70;;;10.80;99.90;;;;;;5102362;28;20101;-44
2022/06/21 03:59:01;;;;;;;9.13;4.90;;;10.80;99.90;;;;;;5101173;28;20138;-48
2022/06/21 04:01:45;;;;;;;7.90;4.78;;;10.70;99.90;;;;;;5102937;28;20047;-46
2022/06/21 04:04:15;;;;;;;31.67;6.20;;;10.80;99.90;;;;;;5102672;28;20035;-47
2022/06/21 04:06:54;;;;;;;16.85;5.63;;;10.70;99.90;;;;;;5102351;27;20039;-48
2022/06/21 04:09:44;;;;;;;26.77;4.80;;;10.70;99.90;;;;;;5086573;28;20046;-48
2022/06/21 04:12:16;;;;;;;8.07;3.30;;;10.70;99.90;;;;;;5102276;28;20478;-47
2022/06/21 04:14:51;;;;;;;12.35;2.53;;;10.70;99.90;;;;;;5102045;28;20036;-50
2022/06/21 04:17:39;;;;;;;8.52;2.20;;;10.70;99.90;;;;;;5069920;28;20044;-45
2022/06/21 04:20:17;;;;;;;11.38;2.50;;;10.60;99.90;;;;;;5102894;28;20071;-48
2022/06/21 04:22:49;;;;;;;18.90;2.30;;;10.70;99.90;;;;;;5102374;28;20423;-47
2022/06/21 04:25:33;;;;;;;11.32;2.20;;;10.80;99.90;;;;;;5102282;28;20030;-49
2022/06/21 04:28:02;;;;;;;;;;;10.80;99.90;;;;;;5102967;28;20047;-48
2022/06/21 04:30:51;;;;;;;3.67;1.92;;;10.80;99.90;;;;;;5101108;28;19911;-47
2022/06/21 04:33:22;;;;;;;11.07;2.22;;;10.90;99.90;;;;;;5102538;28;20031;-45
2022/06/21 04:36:09;;;;;;;6.60;1.95;;;10.80;99.90;;;;;;5099924;28;20032;-45
2022/06/21 04:38:41;;;;;;;3.33;1.98;;;10.90;99.90;;;;;;5101848;28;20086;-47
2022/06/21 04:41:30;;;;;;;2.90;1.80;;;11.00;99.90;;;;;;5102047;28;20176;-47
2022/06/21 04:44:11;;;;;;;3.95;1.95;;;11.00;99.90;;;;;;5092415;28;20047;-47
2022/06/21 04:46:43;;;;;;;4.35;2.60;;;11.00;99.90;;;;;;5101926;28;20054;-48
2022/06/21 04:49:18;;;;;;;4.45;2.22;;;10.90;99.90;;;;;;5101873;28;20430;-45
2022/06/21 04:51:50;;;;;;;6.82;2.40;;;11.10;99.90;;;;;;5093695;28;20165;-46
2022/06/21 04:54:22;;;;;;;3.83;2.38;;;11.20;99.90;;;;;;5092499;28;20047;-49
2022/06/21 04:57:17;;;;;;;5.38;2.33;;;11.30;99.90;;;;;;5101648;28;20035;-48
2022/06/21 04:59:53;;;;;;;5.05;2.47;;;11.40;99.90;;;;;;5102131;28;20120;-46
2022/06/21 05:02:48;;;;;;;5.35;2.85;;;11.40;99.90;;;;;;5084706;28;20781;-47
2022/06/21 05:05:31;;;;;;;4.38;3.05;;;11.50;99.90;;;;;;5085580;28;20123;-50
2022/06/21 05:07:59;;;;;;;6.85;3.25;;;11.50;99.90;;;;;;5086794;28;20027;-46
2022/06/21 05:10:36;;;;;;;6.80;3.55;;;11.50;99.90;;;;;;5100518;28;20066;-46
2022/06/21 05:13:06;;;;;;;10.52;3.53;;;11.60;99.90;;;;;;5100100;28;20557;-46
2022/06/21 05:15:36;;;;;;;8.18;3.70;;;11.60;99.90;;;;;;5100211;28;20043;-46
2022/06/21 05:18:17;;;;;;;7.43;4.35;;;11.70;99.90;;;;;;5100145;28;20055;-46
2022/06/21 05:20:52;;;;;;;7.88;3.70;;;11.70;99.90;;;;;;5100864;28;20024;-50
2022/06/21 05:23:18;;;;;;;6.60;3.60;;;11.80;99.90;;;;;;5102088;28;20111;-50
2022/06/21 05:25:46;;;;;;;8.45;4.07;;;11.80;99.90;;;;;;5105570;27;20119;-48
2022/06/21 05:28:34;;;;;;;7.50;4.13;;;11.90;99.90;;;;;;5105072;28;20040;-47
2022/06/21 05:31:10;;;;;;;9.57;4.00;;;12.00;99.90;;;;;;5104566;28;20038;-47
2022/06/21 05:33:46;;;;;;;9.70;3.95;;;12.10;99.90;;;;;;5105045;28;20040;-44
2022/06/21 05:36:21;;;;;;;7.15;4.18;;;12.10;99.90;;;;;;5104865;28;20043;-46
2022/06/21 05:38:55;;;;;;;9.40;4.93;;;12.20;99.90;;;;;;5110951;27;20044;-49
2022/06/21 05:41:39;;;;;;;9.97;5.00;;;12.40;99.90;;;;;;5111209;28;20040;-47
2022/06/21 05:44:19;;;;;;;12.98;4.60;;;12.50;99.90;;;;;;5111249;28;20282;-50
2022/06/21 05:46:53;;;;;;;9.90;4.47;;;12.40;99.90;;;;;;5113053;28;20065;-49
2022/06/21 05:49:30;;;;;;;10.52;5.05;;;12.50;99.90;;;;;;5094435;28;20035;-48
2022/06/21 05:52:00;;;;;;;11.18;5.60;;;12.70;99.90;;;;;;5111855;28;20055;-47
2022/06/21 05:54:51;;;;;;;11.85;5.00;;;12.70;99.90;;;;;;5076920;28;20044;-50
2022/06/21 05:57:22;;;;;;;15.05;5.10;;;12.90;99.90;;;;;;5112614;27;20027;-47
2022/06/21 05:59:48;;;;;;;11.50;5.10;;;12.80;99.90;;;;;;5112569;28;20054;-48
2022/06/21 06:02:38;;;;;;;12.75;4.95;;;12.90;99.90;;;;;;5113003;28;20040;-49
2022/06/21 06:05:35;;;;;;;13.45;5.25;;;13.00;99.90;;;;;;5112878;28;20053;-49
2022/06/21 06:08:14;;;;;;;9.35;5.05;;;13.10;99.90;;;;;;5112742;28;20047;-47
2022/06/21 06:10:43;;;;;;;13.02;5.20;;;13.20;99.90;;;;;;5112703;28;20482;-49
2022/06/21 06:13:14;;;;;;;10.88;5.15;;;13.20;99.90;;;;;;5112836;28;20093;-47
2022/06/21 06:15:49;;;;;;;11.50;5.35;;;13.30;99.90;;;;;;5112557;28;20035;-49
2022/06/21 06:18:19;;;;;;;11.30;4.95;;;13.40;99.90;;;;;;5112658;28;20066;-45
2022/06/21 06:21:12;;;;;;;10.07;4.63;;;13.50;99.90;;;;;;5112463;27;20107;-49
2022/06/21 06:23:41;;;;;;;13.55;5.13;;;13.50;99.90;;;;;;5093448;27;20031;-47
2022/06/21 06:26:14;;;;;;;11.55;4.65;;;13.60;99.90;;;;;;5112038;28;20040;-48
2022/06/21 06:28:57;;;;;;;12.95;5.00;;;13.70;99.90;;;;;;5111975;28;20051;-49
2022/06/21 06:31:39;;;;;;;11.63;4.40;;;13.70;99.90;;;;;;5112404;28;20059;-48
2022/06/21 06:34:09;;;;;;;9.77;4.40;;;13.80;99.90;;;;;;5112321;28;20035;-48
2022/06/21 06:36:39;;;;;;;9.77;4.47;;;13.80;99.90;;;;;;5112078;28;20035;-48
2022/06/21 06:39:25;;;;;;;9.93;4.03;;;13.90;99.90;;;;;;5112015;28;20493;-49
2022/06/21 06:42:06;;;;;;;10.63;4.88;;;14.00;99.90;;;;;;5112410;28;20058;-49
2022/06/21 06:44:41;;;;;;;10.77;4.15;;;14.10;99.90;;;;;;5111668;28;20036;-46
2022/06/21 06:47:14;;;;;;;10.70;3.65;;;14.10;99.90;;;;;;5112014;28;20035;-49
2022/06/21 06:49:40;;;;;;;10.95;4.15;;;14.20;99.90;;;;;;5112171;28;20089;-48
2022/06/21 06:52:06;;;;;;;11.68;3.25;;;14.20;99.90;;;;;;5093096;28;20417;-46
2022/06/21 06:54:45;;;;;;;8.43;3.08;;;14.10;99.90;;;;;;5111763;28;20043;-49
2022/06/21 06:57:20;;;;;;;10.32;3.22;;;14.30;99.90;;;;;;5111461;28;20039;-46
2022/06/21 06:59:45;;;;;;;10.30;3.17;;;14.30;99.90;;;;;;5109728;28;20118;-46
2022/06/21 07:02:30;;;;;;;10.45;3.35;;;14.30;99.90;;;;;;5091972;28;20067;-50
2022/06/21 07:05:19;;;;;;;13.02;3.53;;;14.30;99.90;;;;;;5103092;27;20032;-49
2022/06/21 07:07:53;;;;;;;10.43;3.63;;;14.40;99.90;;;;;;5084282;28;20063;-48
2022/06/21 07:10:20;;;;;;;;;;;14.50;99.90;;;;;;5103652;28;20047;-44
2022/06/21 07:12:47;;;;;;;8.57;3.08;;;14.50;99.90;;;;;;5103121;28;19916;-48
2022/06/21 07:15:14;;;;;;;9.90;3.00;;;14.60;99.90;;;;;;5102301;28;20070;-48
2022/06/21 07:17:51;;;;;;;10.40;3.33;;;14.60;99.90;;;;;;5100631;28;20031;-49
2022/06/21 07:20:24;;;;;;;6.43;2.83;;;14.60;99.90;;;;;;5102299;28;20475;-49
2022/06/21 07:22:55;;;;;;;7.18;2.50;;;14.70;99.90;;;;;;5102585;28;20040;-47
2022/06/21 07:25:31;;;;;;;10.68;2.55;;;14.70;99.90;;;;;;5102035;28;20050;-47
2022/06/21 07:28:02;;;;;;;9.25;2.45;;;14.80;99.90;;;;;;5098108;28;20410;-47
2022/06/21 07:30:39;;;;;;;7.18;2.63;;;14.80;99.90;;;;;;5086471;28;20107;-48
2022/06/21 07:33:15;;;;;;;11.90;2.78;;;15.00;99.90;;;;;;5099038;28;20038;-46
2022/06/21 07:35:46;;;;;;;7.32;2.55;;;14.90;99.90;;;;;;5083955;28;20087;-48
2022/06/21 07:38:25;;;;;;;6.93;2.60;;;15.00;99.90;;;;;;5098282;28;20440;-49
2022/06/21 07:41:12;;;;;;;9.45;2.45;;;15.00;99.90;;;;;;5100880;28;20034;-48
2022/06/21 07:43:40;;;;;;;7.55;2.30;;;15.10;99.90;;;;;;5101771;28;20094;-49
2022/06/21 07:46:08;;;;;;;9.90;2.58;;;15.10;99.90;;;;;;5100657;28;20109;-47
2022/06/21 07:48:40;;;;;;;9.30;2.45;;;15.10;99.90;;;;;;5100740;27;20032;-49
2022/06/21 07:51:12;;;;;;;6.18;2.20;;;15.20;99.90;;;;;;5102346;28;20088;-47
2022/06/21 07:54:06;;;;;;;7.95;2.50;;;15.40;99.90;;;;;;5101841;28;20122;-51
2022/06/21 07:56:38;;;;;;;8.68;2.97;;;15.20;99.90;;;;;;5101058;28;20446;-48
2022/06/21 07:59:09;;;;;;;9.07;3.67;;;15.30;99.90;;;;;;5098642;28;20054;-46
2022/06/21 08:07:32;;;;;;;5.47;2.55;;;15.50;99.90;;;;;;5099375;28;20035;-46
2022/06/21 08:10:13;;;;;;;8.77;2.88;;;15.50;99.90;;;;;;5099673;28;20032;-49
2022/06/21 08:12:38;;;;;;;9.45;2.53;;;15.60;99.90;;;;;;5099510;28;20398;-51
2022/06/21 08:15:05;;;;;;;11.23;2.45;;;15.60;99.90;;;;;;5100697;28;20110;-49
2022/06/21 08:17:38;;;;;;;14.20;2.20;;;15.70;99.90;;;;;;5100660;28;20035;-49
2022/06/21 08:20:11;;;;;;;8.77;2.00;;;15.80;99.90;;;;;;5098587;28;20074;-46
2022/06/21 08:22:40;;;;;;;8.68;2.35;;;15.80;99.90;;;;;;5101402;28;20100;-49
2022/06/21 08:25:13;;;;;;;8.50;2.30;;;15.90;99.90;;;;;;5101550;28;20073;-49
2022/06/21 08:28:15;;;;;;;8.10;2.25;;;15.90;99.90;;;;;;5100699;28;20047;-46
2022/06/21 08:30:49;;;;;;;8.27;2.47;;;15.90;99.90;;;;;;5101210;28;20043;-47
2022/06/21 08:33:46;;;;;;;9.90;2.38;;;16.00;99.90;;;;;;5086176;28;20065;-46
2022/06/21 08:36:20;;;;;;;5.45;2.08;;;16.20;99.90;;;;;;5101912;28;20363;-47
2022/06/21 08:39:02;;;;;;;;;;;16.30;99.90;;;;;;5101703;28;20109;-51
2022/06/21 08:42:04;;;;;;;6.13;2.30;;;16.50;99.90;;;;;;5100042;28;19920;-47
2022/06/21 08:48:05;;;;;;;9.60;2.35;;;16.40;99.90;;;;;;5100815;28;20039;-46
2022/06/21 08:50:57;;;;;;;7.25;2.17;;;16.50;99.90;;;;;;5100000;28;22084;-48
2022/06/21 08:53:52;;;;;;;7.03;2.00;;;16.60;99.90;;;;;;5101404;28;20389;-47
2022/06/21 08:56:30;;;;;;;6.65;1.83;;;16.70;99.90;;;;;;5104378;28;20043;-47
2022/06/21 08:59:01;;;;;;;8.52;2.65;;;16.80;99.90;;;;;;5102832;28;20572;-50
2022/06/21 09:01:56;;;;;;;5.80;1.83;;;17.10;99.90;;;;;;5105248;28;20120;-50
2022/06/21 09:04:46;;;;;;;4.88;2.00;;;17.20;99.90;;;;;;5102865;28;20161;-47
2022/06/21 09:07:18;;;;;;;7.72;2.13;;;17.40;99.90;;;;;;5082436;28;20122;-48
2022/06/21 09:10:07;;;;;;;6.03;1.98;;;17.60;99.90;;;;;;5101279;27;20050;-47
2022/06/21 09:12:43;;;;;;;9.23;2.20;;;17.90;99.90;;;;;;5102682;28;20054;-48
2022/06/21 09:15:24;;;;;;;9.15;1.95;;;18.10;99.90;;;;;;5105158;28;20470;-47
2022/06/21 09:18:30;;;;;;;6.00;2.10;;;18.40;99.90;;;;;;5105074;28;20134;-48
2022/06/21 09:21:04;;;;;;;7.72;1.60;;;18.30;99.90;;;;;;5077188;27;20612;-50
2022/06/21 09:23:48;;;;;;;5.15;1.77;;;18.40;99.90;;;;;;5102915;28;20043;-47
2022/06/21 09:27:07;;;;;;;6.40;1.35;;;18.30;99.90;;;;;;5103630;28;20039;-49
2022/06/21 09:29:51;;;;;;;6.28;1.80;;;18.80;99.90;;;;;;5063277;28;20441;-51
2022/06/21 09:32:58;;;;;;;3.92;1.45;;;18.90;99.90;;;;;;5104659;28;20036;-49
2022/06/21 09:35:51;;;;;;;5.93;1.52;;;19.00;99.90;;;;;;5103810;28;20031;-48
2022/06/21 09:38:38;;;;;;;4.50;1.10;;;19.00;99.90;;;;;;5104163;28;20040;-48
2022/06/21 09:41:31;;;;;;;3.97;1.30;;;19.00;99.90;;;;;;5105200;28;20471;-48
2022/06/21 09:44:28;;;;;;;3.70;1.23;;;19.10;99.90;;;;;;5100990;28;20035;-47
2022/06/21 09:47:27;;;;;;;6.32;1.55;;;19.30;99.90;;;;;;5084472;28;20440;-49
2022/06/21 09:49:58;;;;;;;4.40;1.15;;;19.50;99.90;;;;;;5101217;28;20050;-47
2022/06/21 09:52:39;;;;;;;2.72;0.70;;;19.50;99.80;;;;;;5102835;28;20490;-47
2022/06/21 09:55:42;;;;;;;4.85;1.20;;;19.30;99.90;;;;;;5102431;28;20114;-50
2022/06/21 09:58:33;;;;;;;5.43;1.58;;;19.40;99.90;;;;;;5099789;28;20079;-49
2022/06/21 10:01:17;;;;;;;4.75;1.42;;;19.50;99.90;;;;;;5105068;27;20054;-49
2022/06/21 10:04:04;;;;;;;2.75;1.10;;;19.50;99.90;;;;;;5082887;27;20035;-48
2022/06/21 10:06:44;;;;;;;4.07;1.10;;;19.60;99.90;;;;;;5105313;28;20024;-50
2022/06/21 10:09:34;;;;;;;5.65;1.15;;;19.80;99.90;;;;;;5105047;27;20505;-50
2022/06/21 10:12:30;;;;;;;3.63;1.00;;;19.80;99.90;;;;;;5104338;28;20043;-46
2022/06/21 10:15:09;;;;;;;5.20;0.95;;;20.00;99.90;;;;;;5104157;27;20039;-48
2022/06/21 10:18:11;;;;;;;3.42;0.77;;;20.00;99.90;;;;;;5091795;28;20437;-45
2022/06/21 10:20:42;;;;;;;4.97;0.80;;;20.00;98.00;;;;;;5104900;27;20046;-49
2022/06/21 10:23:28;;;;;;;3.30;0.63;;;20.10;99.80;;;;;;5104584;28;20031;-49
2022/06/21 10:25:54;;;;;;;6.07;0.95;;;20.10;95.70;;;;;;5104599;27;20043;-47
2022/06/21 10:28:31;;;;;;;4.07;1.05;;;20.10;98.80;;;;;;5104057;28;20040;-45
2022/06/21 10:31:15;;;;;;;3.63;0.90;;;20.10;98.30;;;;;;5104577;27;20032;-46
2022/06/21 10:33:47;;;;;;;6.40;1.23;;;20.50;97.80;;;;;;5103371;28;20051;-48
2022/06/21 10:36:25;;;;;;;5.43;1.05;;;20.70;97.10;;;;;;5104009;27;20036;-49
2022/06/21 10:39:38;;;;;;;4.55;1.58;;;20.30;97.00;;;;;;5098173;28;20048;-46
2022/06/21 10:42:47;;;;;;;6.25;1.55;;;20.60;97.30;;;;;;4984874;28;20034;-48
2022/06/21 10:45:18;;;;;;;4.28;1.38;;;20.60;94.00;;;;;;5103791;27;20031;-48
2022/06/21 10:48:17;;;;;;;1.98;0.73;;;20.70;97.30;;;;;;5103971;27;20127;-48
2022/06/21 10:50:56;;;;;;;3.28;1.02;;;20.40;94.30;;;;;;5104734;27;20549;-49
2022/06/21 10:53:48;;;;;;;4.30;0.60;;;20.60;95.50;;;;;;5103108;28;20405;-47
2022/06/21 10:59:28;;;;;;;5.35;1.10;;;20.90;96.20;;;;;;5103869;27;20083;-49
2022/06/21 11:02:04;;;;;;;6.35;1.45;;;20.70;95.80;;;;;;5102137;28;20106;-49
2022/06/21 11:05:25;;;;;;;4.05;1.15;;;21.20;97.30;;;;;;5103745;28;20027;-49
2022/06/21 11:07:54;;;;;;;6.28;1.45;;;21.40;96.00;;;;;;5062077;28;20067;-47
2022/06/21 11:10:34;;;;;;;4.53;0.93;;;21.20;94.70;;;;;;5103181;28;20093;-47
2022/06/21 11:13:05;;;;;;;5.30;0.95;;;21.20;94.30;;;;;;5103652;28;20027;-47
2022/06/21 11:15:49;;;;;;;5.20;0.80;;;20.90;96.10;;;;;;5101741;28;20060;-46
2022/06/21 11:18:17;;;;;;;;;;;21.40;96.50;;;;;;5103605;27;20100;-46
2022/06/21 11:21:15;;;;;;;4.50;1.08;;;21.70;96.70;;;;;;5101166;27;19919;-50
2022/06/21 11:24:01;;;;;;;4.75;1.00;;;21.80;95.10;;;;;;5105575;28;20048;-51
2022/06/21 11:27:01;;;;;;;6.47;0.90;;;22.00;93.00;;;;;;5091814;28;20048;-49
2022/06/21 11:29:33;;;;;;;4.13;1.00;;;22.10;93.20;;;;;;5100237;28;20043;-48
2022/06/21 11:32:05;;;;;;;6.60;0.90;;;22.20;94.90;;;;;;5107906;28;20036;-49
2022/06/21 11:34:45;;;;;;;7.22;1.10;;;22.30;96.20;;;;;;5106308;28;20042;-49
2022/06/21 11:37:25;;;;;;;4.43;0.90;;;22.40;93.00;;;;;;5110182;28;20095;-50
2022/06/21 11:40:05;;;;;;;5.32;1.20;;;22.20;93.60;;;;;;5109808;28;20158;-48
2022/06/21 11:42:33;;;;;;;5.07;1.30;;;22.10;95.40;;;;;;5110817;28;20043;-48
2022/06/21 11:45:16;;;;;;;3.03;1.10;;;22.10;95.80;;;;;;5108748;28;20121;-50
2022/06/21 11:48:21;;;;;;;3.28;1.08;;;22.30;94.70;;;;;;5109949;27;20027;-49
2022/06/21 11:50:58;;;;;;;;;;;22.20;95.00;;;;;;5111246;28;20047;-51
2022/06/21 11:53:33;;;;;;;5.38;1.10;;;21.80;94.60;;;;;;5106865;28;19993;-51
2022/06/21 11:56:32;;;;;;;5.80;1.20;;;21.90;94.80;;;;;;5106461;28;20116;-50
2022/06/21 11:59:28;;;;;;;4.90;1.10;;;21.90;94.90;;;;;;5109863;28;20102;-51
2022/06/21 12:02:12;;;;;;;4.55;1.00;;;21.80;94.50;;;;;;5110446;28;20051;-49
2022/06/21 12:04:53;;;;;;;5.68;1.02;;;22.00;95.40;;;;;;5110219;28;20228;-47
2022/06/21 12:07:40;;;;;;;5.13;1.15;;;22.10;94.60;;;;;;5110457;28;20043;-52
2022/06/21 12:10:24;;;;;;;6.78;1.33;;;22.10;93.70;;;;;;5110000;28;20506;-47
2022/06/21 12:13:26;;;;;;;4.40;1.00;;;22.30;94.10;;;;;;5110675;28;20599;-50
2022/06/21 12:16:46;;;;;;;3.75;0.95;;;22.60;94.20;;;;;;5094499;28;20055;-49
2022/06/21 12:19:16;;;;;;;5.85;1.27;;;22.90;93.30;;;;;;5025257;28;20049;-49
2022/06/21 12:21:52;;;;;;;3.55;1.38;;;23.40;94.30;;;;;;5089060;28;20055;-49
2022/06/21 12:24:23;;;;;;;5.70;1.10;;;23.10;92.50;;;;;;5106349;28;20466;-49
2022/06/21 12:26:48;;;;;;;4.47;1.30;;;23.10;93.70;;;;;;5078317;27;20111;-48
2022/06/21 12:29:20;;;;;;;4.70;1.50;;;23.10;93.20;;;;;;5109512;27;20611;-47
2022/06/21 12:31:50;;;;;;;4.63;1.20;;;23.20;93.00;;;;;;5113862;28;20040;-48
2022/06/21 12:34:42;;;;;;;6.15;1.00;;;23.20;92.80;;;;;;5113777;27;20044;-48
2022/06/21 12:37:16;;;;;;;3.40;1.10;;;23.50;91.00;;;;;;5114139;28;20050;-45
2022/06/21 12:39:58;;;;;;;7.13;1.33;;;23.40;90.90;;;;;;5111605;27;20088;-49
2022/06/21 12:42:35;;;;;;;4.07;1.10;;;23.60;91.60;;;;;;5091109;28;20048;-47
2022/06/21 12:45:36;;;;;;;5.63;1.15;;;23.90;91.30;;;;;;5112298;28;20420;-49
2022/06/21 12:48:04;;;;;;;4.13;0.70;;;24.10;91.90;;;;;;5081338;28;20035;-49
2022/06/21 12:50:44;;;;;;;3.20;0.80;;;24.40;91.10;;;;;;5113673;28;20057;-47
2022/06/21 12:53:28;;;;;;;3.45;0.80;;;24.10;88.50;;;;;;5113743;27;20447;-49
2022/06/21 12:56:06;;;;;;;3.33;0.68;;;23.90;90.20;;;;;;5112853;28;20039;-50
2022/06/21 12:58:50;;;;;;;5.10;1.00;;;24.20;92.10;;;;;;5113625;28;20051;-47
2022/06/21 13:01:21;;;;;;;;;;;23.70;90.80;;;;;;5114453;28;20051;-48
2022/06/21 13:03:55;;;;;;;3.53;1.10;;;23.80;91.80;;;;;;5109949;28;19919;-46
2022/06/21 13:06:39;;;;;;;5.55;1.02;;;23.80;90.70;;;;;;5114086;28;20039;-48
2022/06/21 13:09:05;;;;;;;;;;;23.60;90.60;;;;;;5110895;28;20118;-48
2022/06/21 13:11:55;;;;;;;5.82;0.85;;;23.40;90.00;;;;;;5112672;28;20002;-47
2022/06/21 13:14:41;;;;;;;2.53;0.70;;;23.50;91.80;;;;;;5110285;28;20044;-49
2022/06/21 13:17:16;;;;;;;4.47;1.15;;;24.10;90.10;;;;;;5112456;28;20043;-47
2022/06/21 13:20:27;;;;;;;2.67;0.80;;;24.50;90.40;;;;;;5113988;28;20040;-47
2022/06/21 13:23:07;;;;;;;4.88;0.90;;;24.30;88.90;;;;;;5124966;27;20078;-47
2022/06/21 13:25:39;;;;;;;4.00;1.00;;;24.40;90.40;;;;;;5111009;28;20064;-49
2022/06/21 13:28:44;;;;;;;3.42;0.90;;;24.60;90.30;;;;;;5117535;27;20055;-47
2022/06/21 13:31:20;;;;;;;4.32;1.08;;;24.40;88.40;;;;;;5029154;28;20119;-49
2022/06/21 13:33:51;;;;;;;3.90;1.20;;;24.50;88.80;;;;;;5102621;28;20051;-46
2022/06/21 13:36:25;;;;;;;2.67;1.00;;;24.60;88.10;;;;;;5112729;28;20122;-46
2022/06/21 13:39:00;;;;;;;3.22;1.10;;;24.60;86.10;;;;;;5111691;28;20051;-46
2022/06/21 13:45:01;;;;;;;3.80;0.93;;;25.20;86.00;;;;;;5112026;28;20078;-49
2022/06/21 13:47:38;;;;;;;4.50;1.00;;;25.60;85.70;;;;;;5069614;28;20391;-46
2022/06/21 13:50:22;;;;;;;5.07;1.10;;;25.60;83.40;;;;;;5093120;28;20096;-46
2022/06/21 13:52:53;;;;;;;3.83;0.82;;;25.60;83.60;;;;;;5112122;28;20390;-47
2022/06/21 13:55:37;;;;;;;2.42;0.82;;;25.90;86.80;;;;;;5093297;28;20040;-50
2022/06/21 13:58:13;;;;;;;4.28;0.75;;;26.00;83.60;;;;;;5088179;28;20096;-49
2022/06/21 14:00:52;;;;;;;3.15;0.90;;;25.90;81.20;;;;;;5111076;28;20051;-47
2022/06/21 14:03:34;;;;;;;3.05;0.80;;;25.90;79.10;;;;;;5109895;28;20164;-48